sensor_id;sensor_type;location;lat;lon;timestamp;P1;durP1;ratioP1;P2;durP2;ratioP2
53879;SDS011;39791;53.184;5.486;2023-04-06T00:01:21;39.53;;;35.47;;
53879;SDS011;39791;53.184;5.486;2023-04-06T00:03:47;42.80;;;38.78;;
53879;SDS011;39791;53.184;5.486;2023-04-06T00:06:12;37.20;;;34.03;;
53879;SDS011;39791;53.184;5.486;2023-04-06T00:08:38;37.08;;;33.97;;
53879;SDS011;39791;53.184;5.486;2023-04-06T00:11:03;44.70;;;40.95;;
53879;SDS011;39791;53.184;5.486;2023-04-06T00:13:29;48.25;;;43.33;;
53879;SDS011;39791;53.184;5.486;2023-04-06T00:15:55;31.98;;;29.13;;
53879;SDS011;39791;53.184;5.486;2023-04-06T00:18:20;35.97;;;32.65;;
53879;SDS011;39791;53.184;5.486;2023-04-06T00:20:46;32.45;;;29.80;;
53879;SDS011;39791;53.184;5.486;2023-04-06T00:23:11;32.83;;;29.52;;
53879;SDS011;39791;53.184;5.486;2023-04-06T00:25:37;33.00;;;29.77;;
53879;SDS011;39791;53.184;5.486;2023-04-06T00:28:03;59.70;;;53.55;;
53879;SDS011;39791;53.184;5.486;2023-04-06T00:30:28;38.45;;;34.65;;
53879;SDS011;39791;53.184;5.486;2023-04-06T00:32:54;41.35;;;37.22;;
53879;SDS011;39791;53.184;5.486;2023-04-06T00:35:19;40.58;;;37.10;;
53879;SDS011;39791;53.184;5.486;2023-04-06T00:37:46;31.02;;;28.25;;
53879;SDS011;39791;53.184;5.486;2023-04-06T00:40:13;36.67;;;33.40;;
53879;SDS011;39791;53.184;5.486;2023-04-06T00:42:39;36.28;;;32.60;;
53879;SDS011;39791;53.184;5.486;2023-04-06T00:45:05;32.17;;;29.45;;
53879;SDS011;39791;53.184;5.486;2023-04-06T00:47:32;40.95;;;37.28;;
53879;SDS011;39791;53.184;5.486;2023-04-06T00:49:58;34.65;;;31.80;;
53879;SDS011;39791;53.184;5.486;2023-04-06T00:52:24;59.25;;;53.78;;
53879;SDS011;39791;53.184;5.486;2023-04-06T00:54:50;37.35;;;33.90;;
53879;SDS011;39791;53.184;5.486;2023-04-06T00:57:16;38.33;;;35.13;;
53879;SDS011;39791;53.184;5.486;2023-04-06T00:59:42;37.40;;;34.25;;
53879;SDS011;39791;53.184;5.486;2023-04-06T01:02:08;43.80;;;40.00;;
53879;SDS011;39791;53.184;5.486;2023-04-06T01:04:34;52.53;;;47.75;;
53879;SDS011;39791;53.184;5.486;2023-04-06T01:07:00;39.78;;;36.33;;
53879;SDS011;39791;53.184;5.486;2023-04-06T01:09:29;40.60;;;37.45;;
53879;SDS011;39791;53.184;5.486;2023-04-06T01:11:56;53.30;;;48.47;;
53879;SDS011;39791;53.184;5.486;2023-04-06T01:14:22;46.67;;;42.38;;
53879;SDS011;39791;53.184;5.486;2023-04-06T01:16:48;48.05;;;44.05;;
53879;SDS011;39791;53.184;5.486;2023-04-06T01:19:14;39.40;;;36.05;;
53879;SDS011;39791;53.184;5.486;2023-04-06T01:21:40;29.17;;;26.63;;
53879;SDS011;39791;53.184;5.486;2023-04-06T01:24:06;39.90;;;36.22;;
53879;SDS011;39791;53.184;5.486;2023-04-06T01:26:33;37.70;;;34.22;;
53879;SDS011;39791;53.184;5.486;2023-04-06T01:29:00;38.78;;;34.95;;
53879;SDS011;39791;53.184;5.486;2023-04-06T01:31:26;38.47;;;34.95;;
53879;SDS011;39791;53.184;5.486;2023-04-06T01:33:52;53.47;;;44.78;;
53879;SDS011;39791;53.184;5.486;2023-04-06T01:36:18;38.92;;;35.40;;
53879;SDS011;39791;53.184;5.486;2023-04-06T01:38:45;29.52;;;26.95;;
53879;SDS011;39791;53.184;5.486;2023-04-06T01:41:10;39.45;;;35.83;;
53879;SDS011;39791;53.184;5.486;2023-04-06T01:43:36;35.10;;;31.33;;
53879;SDS011;39791;53.184;5.486;2023-04-06T01:46:02;32.17;;;29.42;;
53879;SDS011;39791;53.184;5.486;2023-04-06T01:48:28;44.42;;;40.42;;
53879;SDS011;39791;53.184;5.486;2023-04-06T01:50:54;41.70;;;37.80;;
53879;SDS011;39791;53.184;5.486;2023-04-06T01:53:20;32.67;;;29.58;;
53879;SDS011;39791;53.184;5.486;2023-04-06T01:55:46;42.88;;;38.50;;
53879;SDS011;39791;53.184;5.486;2023-04-06T01:58:12;37.00;;;33.42;;
53879;SDS011;39791;53.184;5.486;2023-04-06T02:00:38;35.72;;;32.63;;
53879;SDS011;39791;53.184;5.486;2023-04-06T02:03:04;31.38;;;28.55;;
53879;SDS011;39791;53.184;5.486;2023-04-06T02:05:30;33.67;;;30.02;;
53879;SDS011;39791;53.184;5.486;2023-04-06T02:07:58;29.55;;;26.83;;
53879;SDS011;39791;53.184;5.486;2023-04-06T02:10:24;33.47;;;30.40;;
53879;SDS011;39791;53.184;5.486;2023-04-06T02:12:49;43.92;;;34.80;;
53879;SDS011;39791;53.184;5.486;2023-04-06T02:15:15;47.40;;;43.00;;
53879;SDS011;39791;53.184;5.486;2023-04-06T02:17:41;48.03;;;43.78;;
53879;SDS011;39791;53.184;5.486;2023-04-06T02:20:07;36.63;;;33.00;;
53879;SDS011;39791;53.184;5.486;2023-04-06T02:22:34;35.97;;;30.98;;
53879;SDS011;39791;53.184;5.486;2023-04-06T02:25:00;49.33;;;44.65;;
53879;SDS011;39791;53.184;5.486;2023-04-06T02:27:26;37.00;;;33.65;;
53879;SDS011;39791;53.184;5.486;2023-04-06T02:29:51;31.55;;;28.65;;
53879;SDS011;39791;53.184;5.486;2023-04-06T02:32:17;35.20;;;31.90;;
53879;SDS011;39791;53.184;5.486;2023-04-06T02:34:43;51.20;;;46.20;;
53879;SDS011;39791;53.184;5.486;2023-04-06T02:37:08;38.10;;;34.67;;
53879;SDS011;39791;53.184;5.486;2023-04-06T02:39:34;35.75;;;32.17;;
53879;SDS011;39791;53.184;5.486;2023-04-06T02:41:59;46.78;;;42.15;;
53879;SDS011;39791;53.184;5.486;2023-04-06T02:44:25;41.40;;;37.25;;
53879;SDS011;39791;53.184;5.486;2023-04-06T02:46:51;33.40;;;30.25;;
53879;SDS011;39791;53.184;5.486;2023-04-06T02:49:16;30.52;;;27.55;;
53879;SDS011;39791;53.184;5.486;2023-04-06T02:51:42;50.78;;;45.60;;
53879;SDS011;39791;53.184;5.486;2023-04-06T02:54:07;35.25;;;31.92;;
53879;SDS011;39791;53.184;5.486;2023-04-06T02:56:33;26.55;;;23.88;;
53879;SDS011;39791;53.184;5.486;2023-04-06T02:58:58;34.60;;;31.25;;
53879;SDS011;39791;53.184;5.486;2023-04-06T03:01:24;44.63;;;34.50;;
53879;SDS011;39791;53.184;5.486;2023-04-06T03:03:50;37.20;;;33.53;;
53879;SDS011;39791;53.184;5.486;2023-04-06T03:06:16;26.77;;;23.83;;
53879;SDS011;39791;53.184;5.486;2023-04-06T03:08:41;40.20;;;35.25;;
53879;SDS011;39791;53.184;5.486;2023-04-06T03:11:07;52.50;;;39.58;;
53879;SDS011;39791;53.184;5.486;2023-04-06T03:13:32;35.00;;;31.27;;
53879;SDS011;39791;53.184;5.486;2023-04-06T03:15:58;39.95;;;35.95;;
53879;SDS011;39791;53.184;5.486;2023-04-06T03:18:24;46.63;;;42.10;;
53879;SDS011;39791;53.184;5.486;2023-04-06T03:20:50;55.85;;;48.10;;
53879;SDS011;39791;53.184;5.486;2023-04-06T03:23:18;63.72;;;56.88;;
53879;SDS011;39791;53.184;5.486;2023-04-06T03:25:45;43.75;;;39.05;;
53879;SDS011;39791;53.184;5.486;2023-04-06T03:28:11;44.17;;;39.22;;
53879;SDS011;39791;53.184;5.486;2023-04-06T03:30:37;40.53;;;36.33;;
53879;SDS011;39791;53.184;5.486;2023-04-06T03:33:03;38.10;;;34.67;;
53879;SDS011;39791;53.184;5.486;2023-04-06T03:35:28;48.53;;;43.33;;
53879;SDS011;39791;53.184;5.486;2023-04-06T03:37:54;49.00;;;44.20;;
53879;SDS011;39791;53.184;5.486;2023-04-06T03:40:20;36.60;;;33.17;;
53879;SDS011;39791;53.184;5.486;2023-04-06T03:42:45;47.33;;;41.60;;
53879;SDS011;39791;53.184;5.486;2023-04-06T03:45:11;42.17;;;37.83;;
53879;SDS011;39791;53.184;5.486;2023-04-06T03:47:38;51.38;;;45.72;;
53879;SDS011;39791;53.184;5.486;2023-04-06T03:50:04;41.88;;;37.88;;
53879;SDS011;39791;53.184;5.486;2023-04-06T03:52:31;47.83;;;33.70;;
53879;SDS011;39791;53.184;5.486;2023-04-06T03:54:56;48.20;;;43.30;;
53879;SDS011;39791;53.184;5.486;2023-04-06T03:57:22;33.00;;;29.70;;
53879;SDS011;39791;53.184;5.486;2023-04-06T03:59:47;50.67;;;44.58;;
53879;SDS011;39791;53.184;5.486;2023-04-06T04:02:13;41.92;;;37.50;;
53879;SDS011;39791;53.184;5.486;2023-04-06T04:04:38;42.60;;;33.08;;
53879;SDS011;39791;53.184;5.486;2023-04-06T04:07:04;33.67;;;30.58;;
53879;SDS011;39791;53.184;5.486;2023-04-06T04:09:30;44.97;;;35.53;;
53879;SDS011;39791;53.184;5.486;2023-04-06T04:11:55;40.22;;;35.88;;
53879;SDS011;39791;53.184;5.486;2023-04-06T04:14:21;38.28;;;33.83;;
53879;SDS011;39791;53.184;5.486;2023-04-06T04:16:46;50.97;;;45.92;;
53879;SDS011;39791;53.184;5.486;2023-04-06T04:19:12;44.53;;;40.03;;
53879;SDS011;39791;53.184;5.486;2023-04-06T04:21:44;42.70;;;38.67;;
53879;SDS011;39791;53.184;5.486;2023-04-06T04:24:11;43.42;;;38.75;;
53879;SDS011;39791;53.184;5.486;2023-04-06T04:26:38;48.63;;;43.45;;
53879;SDS011;39791;53.184;5.486;2023-04-06T04:29:04;34.20;;;30.65;;
53879;SDS011;39791;53.184;5.486;2023-04-06T04:31:30;40.72;;;36.70;;
53879;SDS011;39791;53.184;5.486;2023-04-06T04:33:55;48.10;;;40.78;;
53879;SDS011;39791;53.184;5.486;2023-04-06T04:36:21;45.38;;;40.72;;
53879;SDS011;39791;53.184;5.486;2023-04-06T04:38:48;56.03;;;48.30;;
53879;SDS011;39791;53.184;5.486;2023-04-06T04:41:13;49.55;;;40.17;;
53879;SDS011;39791;53.184;5.486;2023-04-06T04:43:39;59.90;;;49.97;;
53879;SDS011;39791;53.184;5.486;2023-04-06T04:46:04;45.58;;;35.17;;
53879;SDS011;39791;53.184;5.486;2023-04-06T04:48:30;52.58;;;47.05;;
53879;SDS011;39791;53.184;5.486;2023-04-06T04:50:56;48.40;;;43.20;;
53879;SDS011;39791;53.184;5.486;2023-04-06T04:53:21;38.35;;;34.72;;
53879;SDS011;39791;53.184;5.486;2023-04-06T04:55:47;53.95;;;48.30;;
53879;SDS011;39791;53.184;5.486;2023-04-06T04:58:13;50.00;;;44.55;;
53879;SDS011;39791;53.184;5.486;2023-04-06T05:00:42;46.28;;;41.25;;
53879;SDS011;39791;53.184;5.486;2023-04-06T05:03:08;51.55;;;43.22;;
53879;SDS011;39791;53.184;5.486;2023-04-06T05:05:38;38.58;;;35.05;;
53879;SDS011;39791;53.184;5.486;2023-04-06T05:08:03;38.60;;;32.42;;
53879;SDS011;39791;53.184;5.486;2023-04-06T05:10:29;40.83;;;36.28;;
53879;SDS011;39791;53.184;5.486;2023-04-06T05:12:55;46.28;;;41.67;;
53879;SDS011;39791;53.184;5.486;2023-04-06T05:15:20;54.60;;;49.10;;
53879;SDS011;39791;53.184;5.486;2023-04-06T05:17:46;39.47;;;35.42;;
53879;SDS011;39791;53.184;5.486;2023-04-06T05:20:11;56.22;;;50.28;;
53879;SDS011;39791;53.184;5.486;2023-04-06T05:22:37;35.65;;;32.15;;
53879;SDS011;39791;53.184;5.486;2023-04-06T05:25:03;38.47;;;34.67;;
53879;SDS011;39791;53.184;5.486;2023-04-06T05:27:29;37.35;;;32.17;;
53879;SDS011;39791;53.184;5.486;2023-04-06T05:29:55;35.28;;;31.90;;
53879;SDS011;39791;53.184;5.486;2023-04-06T05:32:20;48.45;;;43.55;;
53879;SDS011;39791;53.184;5.486;2023-04-06T05:34:48;30.60;;;27.73;;
53879;SDS011;39791;53.184;5.486;2023-04-06T05:37:14;60.90;;;54.53;;
53879;SDS011;39791;53.184;5.486;2023-04-06T05:39:40;48.47;;;40.05;;
53879;SDS011;39791;53.184;5.486;2023-04-06T05:42:06;31.90;;;28.63;;
53879;SDS011;39791;53.184;5.486;2023-04-06T05:44:32;43.95;;;39.83;;
53879;SDS011;39791;53.184;5.486;2023-04-06T05:46:58;43.05;;;38.65;;
53879;SDS011;39791;53.184;5.486;2023-04-06T05:49:23;37.10;;;33.40;;
53879;SDS011;39791;53.184;5.486;2023-04-06T05:51:49;41.28;;;37.25;;
53879;SDS011;39791;53.184;5.486;2023-04-06T05:54:14;38.92;;;34.67;;
53879;SDS011;39791;53.184;5.486;2023-04-06T05:56:40;52.03;;;46.83;;
53879;SDS011;39791;53.184;5.486;2023-04-06T05:59:05;53.80;;;47.25;;
53879;SDS011;39791;53.184;5.486;2023-04-06T06:01:32;43.22;;;39.08;;
53879;SDS011;39791;53.184;5.486;2023-04-06T06:03:59;37.55;;;33.90;;
53879;SDS011;39791;53.184;5.486;2023-04-06T06:06:26;40.78;;;36.33;;
53879;SDS011;39791;53.184;5.486;2023-04-06T06:08:53;37.50;;;33.83;;
53879;SDS011;39791;53.184;5.486;2023-04-06T06:11:18;39.63;;;35.85;;
53879;SDS011;39791;53.184;5.486;2023-04-06T06:13:44;37.35;;;33.40;;
53879;SDS011;39791;53.184;5.486;2023-04-06T06:16:09;51.60;;;47.17;;
53879;SDS011;39791;53.184;5.486;2023-04-06T06:18:35;56.13;;;50.50;;
53879;SDS011;39791;53.184;5.486;2023-04-06T06:21:01;40.83;;;36.47;;
53879;SDS011;39791;53.184;5.486;2023-04-06T06:23:27;64.40;;;57.35;;
53879;SDS011;39791;53.184;5.486;2023-04-06T06:25:53;56.65;;;46.83;;
53879;SDS011;39791;53.184;5.486;2023-04-06T06:28:18;59.50;;;53.35;;
53879;SDS011;39791;53.184;5.486;2023-04-06T06:30:44;41.67;;;37.50;;
53879;SDS011;39791;53.184;5.486;2023-04-06T06:33:10;40.85;;;37.20;;
53879;SDS011;39791;53.184;5.486;2023-04-06T06:35:35;55.63;;;46.22;;
53879;SDS011;39791;53.184;5.486;2023-04-06T06:38:01;35.00;;;30.30;;
53879;SDS011;39791;53.184;5.486;2023-04-06T06:40:27;58.17;;;51.83;;
53879;SDS011;39791;53.184;5.486;2023-04-06T06:42:52;49.08;;;41.38;;
53879;SDS011;39791;53.184;5.486;2023-04-06T06:45:18;34.78;;;28.35;;
53879;SDS011;39791;53.184;5.486;2023-04-06T06:47:45;46.63;;;42.17;;
53879;SDS011;39791;53.184;5.486;2023-04-06T06:50:10;38.28;;;34.55;;
53879;SDS011;39791;53.184;5.486;2023-04-06T06:52:36;39.00;;;35.08;;
53879;SDS011;39791;53.184;5.486;2023-04-06T06:55:02;29.70;;;26.65;;
53879;SDS011;39791;53.184;5.486;2023-04-06T06:57:27;30.00;;;26.85;;
53879;SDS011;39791;53.184;5.486;2023-04-06T06:59:53;25.60;;;22.98;;
53879;SDS011;39791;53.184;5.486;2023-04-06T07:02:18;24.60;;;22.45;;
53879;SDS011;39791;53.184;5.486;2023-04-06T07:04:47;48.95;;;44.40;;
53879;SDS011;39791;53.184;5.486;2023-04-06T07:07:13;48.70;;;40.65;;
53879;SDS011;39791;53.184;5.486;2023-04-06T07:09:39;38.40;;;34.63;;
53879;SDS011;39791;53.184;5.486;2023-04-06T07:12:05;37.55;;;34.10;;
53879;SDS011;39791;53.184;5.486;2023-04-06T07:14:31;41.22;;;37.08;;
53879;SDS011;39791;53.184;5.486;2023-04-06T07:16:57;44.88;;;40.17;;
53879;SDS011;39791;53.184;5.486;2023-04-06T07:19:22;47.47;;;42.83;;
53879;SDS011;39791;53.184;5.486;2023-04-06T07:21:48;52.78;;;47.80;;
53879;SDS011;39791;53.184;5.486;2023-04-06T07:24:14;35.05;;;31.30;;
53879;SDS011;39791;53.184;5.486;2023-04-06T07:26:40;38.90;;;35.10;;
53879;SDS011;39791;53.184;5.486;2023-04-06T07:29:06;26.05;;;21.52;;
53879;SDS011;39791;53.184;5.486;2023-04-06T07:31:32;46.20;;;40.55;;
53879;SDS011;39791;53.184;5.486;2023-04-06T07:33:58;36.30;;;28.15;;
53879;SDS011;39791;53.184;5.486;2023-04-06T07:36:24;31.10;;;27.75;;
53879;SDS011;39791;53.184;5.486;2023-04-06T07:38:49;37.30;;;33.28;;
53879;SDS011;39791;53.184;5.486;2023-04-06T07:41:15;37.72;;;33.67;;
53879;SDS011;39791;53.184;5.486;2023-04-06T07:43:40;34.38;;;25.98;;
53879;SDS011;39791;53.184;5.486;2023-04-06T07:46:06;49.30;;;42.53;;
53879;SDS011;39791;53.184;5.486;2023-04-06T07:48:32;47.85;;;42.95;;
53879;SDS011;39791;53.184;5.486;2023-04-06T07:51:04;48.10;;;42.72;;
53879;SDS011;39791;53.184;5.486;2023-04-06T07:53:31;58.30;;;52.22;;
53879;SDS011;39791;53.184;5.486;2023-04-06T07:55:58;50.40;;;40.72;;
53879;SDS011;39791;53.184;5.486;2023-04-06T07:58:23;41.03;;;36.25;;
53879;SDS011;39791;53.184;5.486;2023-04-06T08:00:49;72.22;;;64.75;;
53879;SDS011;39791;53.184;5.486;2023-04-06T08:03:14;48.65;;;43.63;;
53879;SDS011;39791;53.184;5.486;2023-04-06T08:05:41;44.08;;;39.55;;
53879;SDS011;39791;53.184;5.486;2023-04-06T08:08:07;51.80;;;44.63;;
53879;SDS011;39791;53.184;5.486;2023-04-06T08:10:33;51.05;;;42.35;;
53879;SDS011;39791;53.184;5.486;2023-04-06T08:12:59;58.45;;;47.85;;
53879;SDS011;39791;53.184;5.486;2023-04-06T08:15:25;70.53;;;63.42;;
53879;SDS011;39791;53.184;5.486;2023-04-06T08:17:51;75.85;;;67.93;;
53879;SDS011;39791;53.184;5.486;2023-04-06T08:20:17;45.15;;;40.47;;
53879;SDS011;39791;53.184;5.486;2023-04-06T08:22:42;84.53;;;75.47;;
53879;SDS011;39791;53.184;5.486;2023-04-06T08:25:08;74.22;;;65.45;;
53879;SDS011;39791;53.184;5.486;2023-04-06T08:27:34;55.53;;;49.47;;
53879;SDS011;39791;53.184;5.486;2023-04-06T08:29:59;71.90;;;64.47;;
53879;SDS011;39791;53.184;5.486;2023-04-06T08:32:25;38.88;;;31.42;;
53879;SDS011;39791;53.184;5.486;2023-04-06T08:34:53;52.65;;;46.65;;
53879;SDS011;39791;53.184;5.486;2023-04-06T08:37:19;58.88;;;50.92;;
53879;SDS011;39791;53.184;5.486;2023-04-06T08:39:44;60.45;;;53.90;;
53879;SDS011;39791;53.184;5.486;2023-04-06T08:42:12;59.63;;;53.20;;
53879;SDS011;39791;53.184;5.486;2023-04-06T08:44:43;64.13;;;57.45;;
53879;SDS011;39791;53.184;5.486;2023-04-06T08:47:10;32.65;;;25.42;;
53879;SDS011;39791;53.184;5.486;2023-04-06T08:49:37;54.90;;;49.40;;
53879;SDS011;39791;53.184;5.486;2023-04-06T08:52:05;84.00;;;75.20;;
53879;SDS011;39791;53.184;5.486;2023-04-06T08:54:33;50.17;;;44.85;;
53879;SDS011;39791;53.184;5.486;2023-04-06T08:56:59;54.95;;;49.15;;
53879;SDS011;39791;53.184;5.486;2023-04-06T08:59:26;60.80;;;53.22;;
53879;SDS011;39791;53.184;5.486;2023-04-06T09:01:52;52.95;;;45.20;;
53879;SDS011;39791;53.184;5.486;2023-04-06T09:04:19;59.60;;;48.15;;
53879;SDS011;39791;53.184;5.486;2023-04-06T09:06:45;64.35;;;57.63;;
53879;SDS011;39791;53.184;5.486;2023-04-06T09:09:11;55.78;;;47.08;;
53879;SDS011;39791;53.184;5.486;2023-04-06T09:11:43;63.10;;;56.83;;
53879;SDS011;39791;53.184;5.486;2023-04-06T09:14:17;83.78;;;74.90;;
53879;SDS011;39791;53.184;5.486;2023-04-06T09:16:57;70.20;;;62.78;;
53879;SDS011;39791;53.184;5.486;2023-04-06T09:19:23;65.55;;;58.63;;
53879;SDS011;39791;53.184;5.486;2023-04-06T09:21:48;49.03;;;43.78;;
53879;SDS011;39791;53.184;5.486;2023-04-06T09:24:14;56.28;;;49.15;;
53879;SDS011;39791;53.184;5.486;2023-04-06T09:26:46;50.80;;;45.63;;
53879;SDS011;39791;53.184;5.486;2023-04-06T09:29:21;59.47;;;51.97;;
53879;SDS011;39791;53.184;5.486;2023-04-06T09:34:20;72.00;;;64.37;;
53879;SDS011;39791;53.184;5.486;2023-04-06T09:36:47;68.25;;;60.95;;
53879;SDS011;39791;53.184;5.486;2023-04-06T09:39:13;59.95;;;53.58;;
53879;SDS011;39791;53.184;5.486;2023-04-06T09:41:39;49.17;;;42.75;;
53879;SDS011;39791;53.184;5.486;2023-04-06T09:44:09;41.92;;;31.17;;
53879;SDS011;39791;53.184;5.486;2023-04-06T09:46:35;47.72;;;42.72;;
53879;SDS011;39791;53.184;5.486;2023-04-06T09:49:06;46.80;;;41.75;;
53879;SDS011;39791;53.184;5.486;2023-04-06T09:51:37;44.65;;;32.45;;
53879;SDS011;39791;53.184;5.486;2023-04-06T09:54:19;40.03;;;35.67;;
53879;SDS011;39791;53.184;5.486;2023-04-06T09:59:18;43.65;;;38.08;;
53879;SDS011;39791;53.184;5.486;2023-04-06T10:01:56;56.75;;;49.50;;
53879;SDS011;39791;53.184;5.486;2023-04-06T10:04:39;55.53;;;47.15;;
53879;SDS011;39791;53.184;5.486;2023-04-06T10:07:23;58.97;;;52.15;;
53879;SDS011;39791;53.184;5.486;2023-04-06T10:09:51;56.88;;;50.10;;
53879;SDS011;39791;53.184;5.486;2023-04-06T10:12:20;40.38;;;33.70;;
53879;SDS011;39791;53.184;5.486;2023-04-06T10:14:45;36.78;;;29.80;;
53879;SDS011;39791;53.184;5.486;2023-04-06T10:17:11;53.40;;;43.53;;
53879;SDS011;39791;53.184;5.486;2023-04-06T10:19:47;47.55;;;41.85;;
53879;SDS011;39791;53.184;5.486;2023-04-06T10:22:33;47.83;;;40.35;;
53879;SDS011;39791;53.184;5.486;2023-04-06T10:25:09;44.25;;;36.92;;
53879;SDS011;39791;53.184;5.486;2023-04-06T10:27:35;43.35;;;35.05;;
53879;SDS011;39791;53.184;5.486;2023-04-06T10:30:05;52.13;;;46.75;;
53879;SDS011;39791;53.184;5.486;2023-04-06T10:32:32;60.90;;;49.75;;
53879;SDS011;39791;53.184;5.486;2023-04-06T10:35:06;72.50;;;61.90;;
53879;SDS011;39791;53.184;5.486;2023-04-06T10:37:52;60.53;;;50.70;;
53879;SDS011;39791;53.184;5.486;2023-04-06T10:40:25;70.22;;;60.00;;
53879;SDS011;39791;53.184;5.486;2023-04-06T10:42:52;54.13;;;46.22;;
53879;SDS011;39791;53.184;5.486;2023-04-06T10:45:25;49.78;;;41.33;;
53879;SDS011;39791;53.184;5.486;2023-04-06T10:47:54;41.10;;;32.00;;
53879;SDS011;39791;53.184;5.486;2023-04-06T10:50:21;56.10;;;50.20;;
53879;SDS011;39791;53.184;5.486;2023-04-06T10:52:47;49.25;;;40.72;;
53879;SDS011;39791;53.184;5.486;2023-04-06T10:55:27;51.70;;;44.40;;
53879;SDS011;39791;53.184;5.486;2023-04-06T10:57:54;53.08;;;46.47;;
53879;SDS011;39791;53.184;5.486;2023-04-06T11:00:19;53.83;;;45.58;;
53879;SDS011;39791;53.184;5.486;2023-04-06T11:02:45;69.85;;;58.50;;
53879;SDS011;39791;53.184;5.486;2023-04-06T11:05:11;52.38;;;41.03;;
53879;SDS011;39791;53.184;5.486;2023-04-06T11:07:38;64.90;;;57.78;;
53879;SDS011;39791;53.184;5.486;2023-04-06T11:10:05;58.75;;;47.47;;
53879;SDS011;39791;53.184;5.486;2023-04-06T11:12:31;44.00;;;35.15;;
53879;SDS011;39791;53.184;5.486;2023-04-06T11:15:00;66.47;;;54.08;;
53879;SDS011;39791;53.184;5.486;2023-04-06T11:17:29;58.15;;;46.03;;
53879;SDS011;39791;53.184;5.486;2023-04-06T11:19:56;59.25;;;49.70;;
53879;SDS011;39791;53.184;5.486;2023-04-06T11:22:23;61.80;;;50.70;;
53879;SDS011;39791;53.184;5.486;2023-04-06T11:24:49;73.32;;;57.88;;
53879;SDS011;39791;53.184;5.486;2023-04-06T11:27:15;76.55;;;66.68;;
53879;SDS011;39791;53.184;5.486;2023-04-06T11:29:42;79.90;;;69.88;;
53879;SDS011;39791;53.184;5.486;2023-04-06T11:32:08;54.35;;;48.63;;
53879;SDS011;39791;53.184;5.486;2023-04-06T11:34:38;62.63;;;55.33;;
53879;SDS011;39791;53.184;5.486;2023-04-06T11:37:10;61.40;;;50.17;;
53879;SDS011;39791;53.184;5.486;2023-04-06T11:40:09;60.42;;;51.83;;
53879;SDS011;39791;53.184;5.486;2023-04-06T11:42:34;75.07;;;65.30;;
53879;SDS011;39791;53.184;5.486;2023-04-06T11:45:00;59.50;;;51.08;;
53879;SDS011;39791;53.184;5.486;2023-04-06T11:47:30;86.88;;;77.60;;
53879;SDS011;39791;53.184;5.486;2023-04-06T11:50:08;68.25;;;54.78;;
53879;SDS011;39791;53.184;5.486;2023-04-06T11:52:35;55.40;;;49.80;;
53879;SDS011;39791;53.184;5.486;2023-04-06T11:55:10;55.88;;;49.88;;
53879;SDS011;39791;53.184;5.486;2023-04-06T11:57:40;61.55;;;52.83;;
53879;SDS011;39791;53.184;5.486;2023-04-06T12:00:07;54.60;;;48.60;;
53879;SDS011;39791;53.184;5.486;2023-04-06T12:02:34;55.13;;;44.17;;
53879;SDS011;39791;53.184;5.486;2023-04-06T12:05:01;71.88;;;63.03;;
53879;SDS011;39791;53.184;5.486;2023-04-06T12:07:28;83.88;;;62.08;;
53879;SDS011;39791;53.184;5.486;2023-04-06T12:09:55;121.50;;;105.85;;
53879;SDS011;39791;53.184;5.486;2023-04-06T12:12:21;92.70;;;82.72;;
53879;SDS011;39791;53.184;5.486;2023-04-06T12:14:49;59.72;;;53.33;;
53879;SDS011;39791;53.184;5.486;2023-04-06T12:17:15;101.22;;;75.50;;
53879;SDS011;39791;53.184;5.486;2023-04-06T12:19:40;79.35;;;70.72;;
53879;SDS011;39791;53.184;5.486;2023-04-06T12:22:06;103.50;;;83.75;;
53879;SDS011;39791;53.184;5.486;2023-04-06T12:24:31;125.45;;;102.28;;
53879;SDS011;39791;53.184;5.486;2023-04-06T12:26:57;118.10;;;94.57;;
53879;SDS011;39791;53.184;5.486;2023-04-06T12:29:24;133.18;;;104.85;;
53879;SDS011;39791;53.184;5.486;2023-04-06T12:31:49;182.43;;;135.63;;
53879;SDS011;39791;53.184;5.486;2023-04-06T12:34:18;128.02;;;100.72;;
53879;SDS011;39791;53.184;5.486;2023-04-06T12:36:45;144.02;;;106.95;;
53879;SDS011;39791;53.184;5.486;2023-04-06T12:39:11;115.30;;;88.82;;
53879;SDS011;39791;53.184;5.486;2023-04-06T12:41:36;157.38;;;130.65;;
53879;SDS011;39791;53.184;5.486;2023-04-06T12:44:05;45.63;;;40.70;;
53879;SDS011;39791;53.184;5.486;2023-04-06T12:46:30;116.25;;;88.93;;
53879;SDS011;39791;53.184;5.486;2023-04-06T12:49:00;181.55;;;134.10;;
53879;SDS011;39791;53.184;5.486;2023-04-06T12:51:29;259.90;;;163.63;;
53879;SDS011;39791;53.184;5.486;2023-04-06T12:53:56;131.73;;;104.40;;
53879;SDS011;39791;53.184;5.486;2023-04-06T12:56:21;226.48;;;153.52;;
53879;SDS011;39791;53.184;5.486;2023-04-06T12:58:47;150.18;;;122.88;;
53879;SDS011;39791;53.184;5.486;2023-04-06T13:01:13;240.52;;;182.98;;
53879;SDS011;39791;53.184;5.486;2023-04-06T13:03:42;257.45;;;200.73;;
53879;SDS011;39791;53.184;5.486;2023-04-06T13:06:08;242.30;;;167.60;;
53879;SDS011;39791;53.184;5.486;2023-04-06T13:08:34;223.68;;;154.75;;
53879;SDS011;39791;53.184;5.486;2023-04-06T13:11:04;178.25;;;113.47;;
53879;SDS011;39791;53.184;5.486;2023-04-06T13:13:30;261.27;;;197.73;;
53879;SDS011;39791;53.184;5.486;2023-04-06T13:16:03;177.88;;;132.40;;
53879;SDS011;39791;53.184;5.486;2023-04-06T13:18:29;267.98;;;175.38;;
53879;SDS011;39791;53.184;5.486;2023-04-06T13:20:56;205.57;;;137.60;;
53879;SDS011;39791;53.184;5.486;2023-04-06T13:23:22;239.88;;;174.82;;
53879;SDS011;39791;53.184;5.486;2023-04-06T13:25:56;164.05;;;122.18;;
53879;SDS011;39791;53.184;5.486;2023-04-06T13:28:23;392.77;;;251.52;;
53879;SDS011;39791;53.184;5.486;2023-04-06T13:30:49;231.18;;;134.98;;
53879;SDS011;39791;53.184;5.486;2023-04-06T13:33:15;197.95;;;131.60;;
53879;SDS011;39791;53.184;5.486;2023-04-06T13:35:43;209.63;;;137.02;;
53879;SDS011;39791;53.184;5.486;2023-04-06T13:38:10;161.48;;;109.10;;
53879;SDS011;39791;53.184;5.486;2023-04-06T13:40:38;158.75;;;113.05;;
53879;SDS011;39791;53.184;5.486;2023-04-06T13:43:05;182.68;;;113.15;;
53879;SDS011;39791;53.184;5.486;2023-04-06T13:45:31;222.57;;;140.45;;
53879;SDS011;39791;53.184;5.486;2023-04-06T13:47:56;235.95;;;151.55;;
53879;SDS011;39791;53.184;5.486;2023-04-06T13:50:22;260.42;;;175.50;;
53879;SDS011;39791;53.184;5.486;2023-04-06T13:52:47;164.98;;;114.38;;
53879;SDS011;39791;53.184;5.486;2023-04-06T13:55:14;150.98;;;112.95;;
53879;SDS011;39791;53.184;5.486;2023-04-06T13:57:40;107.43;;;62.90;;
53879;SDS011;39791;53.184;5.486;2023-04-06T14:00:06;139.98;;;103.47;;
53879;SDS011;39791;53.184;5.486;2023-04-06T14:02:34;303.73;;;103.35;;
53879;SDS011;39791;53.184;5.486;2023-04-06T14:04:59;98.57;;;78.47;;
53879;SDS011;39791;53.184;5.486;2023-04-06T14:07:25;190.38;;;116.35;;
53879;SDS011;39791;53.184;5.486;2023-04-06T14:09:51;124.57;;;77.85;;
53879;SDS011;39791;53.184;5.486;2023-04-06T14:12:16;181.07;;;87.70;;
53879;SDS011;39791;53.184;5.486;2023-04-06T14:14:42;92.35;;;68.60;;
53879;SDS011;39791;53.184;5.486;2023-04-06T14:17:07;167.30;;;118.43;;
53879;SDS011;39791;53.184;5.486;2023-04-06T14:19:33;126.80;;;73.45;;
53879;SDS011;39791;53.184;5.486;2023-04-06T14:21:59;178.88;;;93.68;;